Terminal Aerodrome Forecast
Issued by NWS

Home | Current Version | Previous Version | Text Only | Print | Product List | Glossary On
Versions: 1 2 3 4 5 6 7 8 9 10 11 12 13 14 15 16 17 18 19 20 21 22
000
FTUS43 KIND 230702 AAA
TAFBMG
TAF AMD
KBMG 230702Z 2307/2406 00000KT 4SM BR FEW060
      TEMPO 2307/2311 3/4SM BR VV004
     FM231300 00000KT P6SM FEW250
     FM231600 11005KT P6SM FEW045 SCT250
      AMD LTD TO CLD VIS AND WIND TIL 231300=

USA.gov is the U.S. government's official web portal to all federal, state and local government web resources and services.